This is the latest recevied weather packets stored in our database for station/object DH1NAI-6. If no packets are shown the sender has not sent any weather packets the latest 10 day(s).
| Time | Temp. | Humidity | Pressure | Rain* | Wind** | Luminosity | Snow |
|---|---|---|---|---|---|---|---|
| 1777554259 | 13.33° C | 37% | 1025.3 hPa | 0 mm | - | 173 W/m² | - |
| 1777553635 | 13.89° C | 37% | 1025.4 hPa | 0 mm | - | 177 W/m² | - |
| 1777553012 | 12.78° C | 37% | 1025.7 hPa | 0 mm | - | 174 W/m² | - |
| 1777552408 | 13.33° C | 36% | 1025.4 hPa | 0 mm | - | 177 W/m² | - |
| 1777551796 | 12.78° C | 35% | 1025.5 hPa | 0 mm | - | 179 W/m² | - |
| 1777551187 | 12.78° C | 35% | 1025.7 hPa | 0 mm | - | 178 W/m² | - |
| 1777550580 | 12.78° C | 34% | 1026.1 hPa | 0 mm | - | 179 W/m² | - |
| 1777549971 | 12.22° C | 37% | 1026 hPa | 0 mm | - | 181 W/m² | - |
| 1777549364 | 12.22° C | 38% | 1026.1 hPa | 0 mm | - | 179 W/m² | - |
| 1777548751 | 11.67° C | 36% | 1025.9 hPa | 0 mm | - | 182 W/m² | - |
| 1777548148 | 11.67° C | 34% | 1026.3 hPa | 0 mm | - | 181 W/m² | - |
| 1777547539 | 11.67° C | 35% | 1026.3 hPa | 0 mm | - | 180 W/m² | - |
| 1777546915 | 11.11° C | 34% | 1026.3 hPa | 0 mm | - | 181 W/m² | - |
| 1777546292 | 11.67° C | 38% | 1026.1 hPa | 0 mm | - | 181 W/m² | - |
| 1777545683 | 10.56° C | 40% | 1026.2 hPa | 0 mm | - | 176 W/m² | - |
| 1777545076 | 11.11° C | 40% | 1026.5 hPa | 0 mm | - | 175 W/m² | - |
| 1777544467 | 10° C | 37% | 1026.6 hPa | 0 mm | - | 178 W/m² | - |
| 1777543860 | 10.56° C | 42% | 1026.3 hPa | 0 mm | - | 180 W/m² | - |
| 1777543251 | 10.56° C | 39% | 1026.4 hPa | 0 mm | - | 182 W/m² | - |
| 1777542644 | 9.44° C | 40% | 1026.3 hPa | 0 mm | - | 182 W/m² | - |
| 1777542031 | 10° C | 42% | 1026.3 hPa | 0 mm | - | 183 W/m² | - |
| 1777541428 | 8.89° C | 43% | 1026.5 hPa | 0 mm | - | 182 W/m² | - |
| 1777540819 | 8.89° C | 40% | 1026.7 hPa | 0 mm | - | 182 W/m² | - |
| 1777540195 | 8.33° C | 43% | 1027 hPa | 0 mm | - | 177 W/m² | - |
| 1777539572 | 8.33° C | 42% | 1026.8 hPa | 0 mm | - | 183 W/m² | - |
* Rain latest hour (hover to see other rain measurements)
** Current wind speed in m/s (hover to see current wind gust speed)